Pine Prairie, Louisiana
Current Conditions -  °F | °C
As of 2:15 PM on Thursday 29 Jan 2015 (Local Time) from KACP Reporting Station
Clear Clear  
Wind Chill: 74°   Ceiling: Unl
Heat Index: 74°   Visibility: 10mi
Dew Point: 53°   Wind: 12mph
Humidity: 47%   Direction: 230°SW
Pressure: 30.18"   Gusts: 18mph
Location:  30.78°N, 92.43°W
Report Text: KACP 292015Z AUTO 23010G16KT 10SM CLR 24/12 A3018 RMK AO2 T02360117
Loading
Personal Weather Stations






























Interactive Weather Map New forecast layout! Learn more

10-Day Weather Forecast

Advertisements
Track Severe Weather on mobile